sensor_id;sensor_type;location;lat;lon;timestamp;P1;durP1;ratioP1;P2;durP2;ratioP2
68212;SDS011;55035;47.792;8.724;2022-11-04T00:01:48;6.05;;;1.65;;
68212;SDS011;55035;47.792;8.724;2022-11-04T00:04:16;6.70;;;1.80;;
68212;SDS011;55035;47.792;8.724;2022-11-04T00:06:44;6.25;;;2.15;;
68212;SDS011;55035;47.792;8.724;2022-11-04T00:09:12;7.32;;;2.90;;
68212;SDS011;55035;47.792;8.724;2022-11-04T00:11:39;6.30;;;1.75;;
68212;SDS011;55035;47.792;8.724;2022-11-04T00:14:23;6.22;;;1.80;;
68212;SDS011;55035;47.792;8.724;2022-11-04T00:16:50;6.88;;;2.05;;
68212;SDS011;55035;47.792;8.724;2022-11-04T00:19:34;9.13;;;2.97;;
68212;SDS011;55035;47.792;8.724;2022-11-04T00:22:16;7.95;;;1.98;;
68212;SDS011;55035;47.792;8.724;2022-11-04T00:25:01;7.65;;;2.53;;
68212;SDS011;55035;47.792;8.724;2022-11-04T00:27:45;9.40;;;3.40;;
68212;SDS011;55035;47.792;8.724;2022-11-04T00:30:29;8.45;;;2.70;;
68212;SDS011;55035;47.792;8.724;2022-11-04T00:32:56;7.05;;;2.53;;
68212;SDS011;55035;47.792;8.724;2022-11-04T00:35:40;6.60;;;2.40;;
68212;SDS011;55035;47.792;8.724;2022-11-04T00:38:14;5.80;;;1.55;;
68212;SDS011;55035;47.792;8.724;2022-11-04T00:40:41;6.32;;;2.10;;
68212;SDS011;55035;47.792;8.724;2022-11-04T00:43:08;8.93;;;2.03;;
68212;SDS011;55035;47.792;8.724;2022-11-04T00:45:35;6.15;;;2.22;;
68212;SDS011;55035;47.792;8.724;2022-11-04T00:48:02;5.55;;;1.50;;
68212;SDS011;55035;47.792;8.724;2022-11-04T00:50:29;3.83;;;1.02;;
68212;SDS011;55035;47.792;8.724;2022-11-04T00:52:57;6.40;;;1.48;;
68212;SDS011;55035;47.792;8.724;2022-11-04T00:55:25;4.15;;;1.10;;
68212;SDS011;55035;47.792;8.724;2022-11-04T00:57:52;4.72;;;1.05;;
68212;SDS011;55035;47.792;8.724;2022-11-04T01:00:19;5.20;;;1.40;;
68212;SDS011;55035;47.792;8.724;2022-11-04T01:02:46;5.22;;;1.20;;
68212;SDS011;55035;47.792;8.724;2022-11-04T01:05:13;6.88;;;1.50;;
68212;SDS011;55035;47.792;8.724;2022-11-04T01:07:40;4.88;;;1.20;;
68212;SDS011;55035;47.792;8.724;2022-11-04T01:10:07;4.30;;;0.98;;
68212;SDS011;55035;47.792;8.724;2022-11-04T01:12:35;3.88;;;0.90;;
68212;SDS011;55035;47.792;8.724;2022-11-04T01:15:02;6.75;;;0.98;;
68212;SDS011;55035;47.792;8.724;2022-11-04T01:17:29;4.10;;;0.70;;
68212;SDS011;55035;47.792;8.724;2022-11-04T01:19:56;3.67;;;0.77;;
68212;SDS011;55035;47.792;8.724;2022-11-04T01:22:23;3.35;;;0.52;;
68212;SDS011;55035;47.792;8.724;2022-11-04T01:24:50;3.40;;;0.70;;
68212;SDS011;55035;47.792;8.724;2022-11-04T01:27:17;4.45;;;0.80;;
68212;SDS011;55035;47.792;8.724;2022-11-04T01:29:45;3.50;;;0.70;;
68212;SDS011;55035;47.792;8.724;2022-11-04T01:34:40;3.58;;;0.60;;
68212;SDS011;55035;47.792;8.724;2022-11-04T01:37:07;3.70;;;0.70;;
68212;SDS011;55035;47.792;8.724;2022-11-04T01:39:33;3.47;;;0.90;;
68212;SDS011;55035;47.792;8.724;2022-11-04T01:42:00;5.05;;;0.80;;
68212;SDS011;55035;47.792;8.724;2022-11-04T01:44:48;3.60;;;0.80;;
68212;SDS011;55035;47.792;8.724;2022-11-04T01:47:16;3.88;;;0.70;;
68212;SDS011;55035;47.792;8.724;2022-11-04T01:49:43;3.90;;;0.93;;
68212;SDS011;55035;47.792;8.724;2022-11-04T01:52:13;4.10;;;0.65;;
68212;SDS011;55035;47.792;8.724;2022-11-04T01:54:42;4.28;;;0.90;;
68212;SDS011;55035;47.792;8.724;2022-11-04T01:57:12;5.32;;;0.70;;
68212;SDS011;55035;47.792;8.724;2022-11-04T01:59:41;4.05;;;0.70;;
68212;SDS011;55035;47.792;8.724;2022-11-04T02:02:10;3.55;;;0.85;;
68212;SDS011;55035;47.792;8.724;2022-11-04T02:04:37;4.25;;;0.80;;
68212;SDS011;55035;47.792;8.724;2022-11-04T02:07:05;4.07;;;1.05;;
68212;SDS011;55035;47.792;8.724;2022-11-04T02:09:33;3.70;;;0.60;;
68212;SDS011;55035;47.792;8.724;2022-11-04T02:12:01;4.78;;;1.10;;
68212;SDS011;55035;47.792;8.724;2022-11-04T02:14:46;3.83;;;0.80;;
68212;SDS011;55035;47.792;8.724;2022-11-04T02:17:20;3.83;;;0.85;;
68212;SDS011;55035;47.792;8.724;2022-11-04T02:19:55;3.13;;;0.60;;
68212;SDS011;55035;47.792;8.724;2022-11-04T02:22:30;3.88;;;0.90;;
68212;SDS011;55035;47.792;8.724;2022-11-04T02:25:10;5.05;;;0.70;;
68212;SDS011;55035;47.792;8.724;2022-11-04T02:27:49;2.45;;;0.50;;
68212;SDS011;55035;47.792;8.724;2022-11-04T02:30:21;3.70;;;0.90;;
68212;SDS011;55035;47.792;8.724;2022-11-04T02:33:07;3.65;;;0.90;;
68212;SDS011;55035;47.792;8.724;2022-11-04T02:35:39;3.40;;;0.70;;
68212;SDS011;55035;47.792;8.724;2022-11-04T02:38:09;4.00;;;0.88;;
68212;SDS011;55035;47.792;8.724;2022-11-04T02:40:38;5.20;;;0.65;;
68212;SDS011;55035;47.792;8.724;2022-11-04T02:43:08;3.47;;;0.70;;
68212;SDS011;55035;47.792;8.724;2022-11-04T02:45:40;4.25;;;0.95;;
68212;SDS011;55035;47.792;8.724;2022-11-04T02:48:10;3.55;;;0.70;;
68212;SDS011;55035;47.792;8.724;2022-11-04T02:50:39;3.67;;;0.70;;
68212;SDS011;55035;47.792;8.724;2022-11-04T02:53:09;4.40;;;0.63;;
68212;SDS011;55035;47.792;8.724;2022-11-04T02:55:40;3.30;;;0.68;;
68212;SDS011;55035;47.792;8.724;2022-11-04T02:58:10;3.67;;;0.88;;
68212;SDS011;55035;47.792;8.724;2022-11-04T03:00:41;3.67;;;0.68;;
68212;SDS011;55035;47.792;8.724;2022-11-04T03:03:10;3.97;;;1.05;;
68212;SDS011;55035;47.792;8.724;2022-11-04T03:05:38;4.35;;;0.88;;
68212;SDS011;55035;47.792;8.724;2022-11-04T03:08:07;5.10;;;0.90;;
68212;SDS011;55035;47.792;8.724;2022-11-04T03:10:36;3.92;;;0.60;;
68212;SDS011;55035;47.792;8.724;2022-11-04T03:13:04;3.95;;;0.88;;
68212;SDS011;55035;47.792;8.724;2022-11-04T03:15:32;3.45;;;0.77;;
68212;SDS011;55035;47.792;8.724;2022-11-04T03:18:03;3.67;;;0.73;;
68212;SDS011;55035;47.792;8.724;2022-11-04T03:20:32;4.45;;;0.80;;
68212;SDS011;55035;47.792;8.724;2022-11-04T03:23:02;4.63;;;1.00;;
68212;SDS011;55035;47.792;8.724;2022-11-04T03:25:31;4.38;;;1.00;;
68212;SDS011;55035;47.792;8.724;2022-11-04T03:28:00;4.00;;;0.90;;
68212;SDS011;55035;47.792;8.724;2022-11-04T03:30:30;4.40;;;0.85;;
68212;SDS011;55035;47.792;8.724;2022-11-04T03:32:59;4.93;;;1.00;;
68212;SDS011;55035;47.792;8.724;2022-11-04T03:35:30;5.97;;;1.20;;
68212;SDS011;55035;47.792;8.724;2022-11-04T03:37:57;4.55;;;1.10;;
68212;SDS011;55035;47.792;8.724;2022-11-04T03:40:24;6.20;;;0.95;;
68212;SDS011;55035;47.792;8.724;2022-11-04T03:42:53;4.60;;;1.00;;
68212;SDS011;55035;47.792;8.724;2022-11-04T03:45:21;4.10;;;1.10;;
68212;SDS011;55035;47.792;8.724;2022-11-04T03:47:48;4.68;;;1.00;;
68212;SDS011;55035;47.792;8.724;2022-11-04T03:50:17;5.18;;;1.00;;
68212;SDS011;55035;47.792;8.724;2022-11-04T03:52:47;4.55;;;0.95;;
68212;SDS011;55035;47.792;8.724;2022-11-04T03:55:14;10.20;;;1.20;;
68212;SDS011;55035;47.792;8.724;2022-11-04T03:57:44;4.78;;;1.10;;
68212;SDS011;55035;47.792;8.724;2022-11-04T04:00:14;5.60;;;1.20;;
68212;SDS011;55035;47.792;8.724;2022-11-04T04:02:45;4.65;;;1.15;;
68212;SDS011;55035;47.792;8.724;2022-11-04T04:05:15;6.57;;;1.40;;
68212;SDS011;55035;47.792;8.724;2022-11-04T04:07:47;4.13;;;1.00;;
68212;SDS011;55035;47.792;8.724;2022-11-04T04:10:17;6.07;;;1.10;;
68212;SDS011;55035;47.792;8.724;2022-11-04T04:13:03;4.75;;;1.00;;
68212;SDS011;55035;47.792;8.724;2022-11-04T04:15:33;4.72;;;0.88;;
68212;SDS011;55035;47.792;8.724;2022-11-04T04:18:04;4.63;;;0.85;;
68212;SDS011;55035;47.792;8.724;2022-11-04T04:20:34;3.63;;;0.90;;
68212;SDS011;55035;47.792;8.724;2022-11-04T04:23:02;4.60;;;0.90;;
68212;SDS011;55035;47.792;8.724;2022-11-04T04:25:53;4.75;;;1.20;;
68212;SDS011;55035;47.792;8.724;2022-11-04T04:28:34;6.63;;;1.95;;
68212;SDS011;55035;47.792;8.724;2022-11-04T04:31:02;4.40;;;1.20;;
68212;SDS011;55035;47.792;8.724;2022-11-04T04:33:29;5.25;;;1.20;;
68212;SDS011;55035;47.792;8.724;2022-11-04T04:35:56;5.03;;;1.20;;
68212;SDS011;55035;47.792;8.724;2022-11-04T04:38:24;4.80;;;1.20;;
68212;SDS011;55035;47.792;8.724;2022-11-04T04:41:11;4.95;;;1.17;;
68212;SDS011;55035;47.792;8.724;2022-11-04T04:43:57;5.10;;;1.00;;
68212;SDS011;55035;47.792;8.724;2022-11-04T04:46:41;4.55;;;1.13;;
68212;SDS011;55035;47.792;8.724;2022-11-04T04:49:09;4.72;;;1.20;;
68212;SDS011;55035;47.792;8.724;2022-11-04T04:51:37;6.18;;;1.40;;
68212;SDS011;55035;47.792;8.724;2022-11-04T04:54:04;6.03;;;1.30;;
68212;SDS011;55035;47.792;8.724;2022-11-04T04:56:33;3.83;;;0.90;;
68212;SDS011;55035;47.792;8.724;2022-11-04T04:59:00;5.65;;;1.15;;
68212;SDS011;55035;47.792;8.724;2022-11-04T05:01:27;4.63;;;1.23;;
68212;SDS011;55035;47.792;8.724;2022-11-04T05:03:53;4.60;;;1.30;;
68212;SDS011;55035;47.792;8.724;2022-11-04T05:06:20;4.40;;;1.20;;
68212;SDS011;55035;47.792;8.724;2022-11-04T05:08:47;6.97;;;1.08;;
68212;SDS011;55035;47.792;8.724;2022-11-04T05:11:14;4.53;;;1.15;;
68212;SDS011;55035;47.792;8.724;2022-11-04T05:13:42;4.60;;;1.17;;
68212;SDS011;55035;47.792;8.724;2022-11-04T05:16:09;7.25;;;1.45;;
68212;SDS011;55035;47.792;8.724;2022-11-04T05:18:36;3.95;;;0.75;;
68212;SDS011;55035;47.792;8.724;2022-11-04T05:21:03;4.18;;;1.02;;
68212;SDS011;55035;47.792;8.724;2022-11-04T05:23:30;4.82;;;1.20;;
68212;SDS011;55035;47.792;8.724;2022-11-04T05:25:57;5.55;;;1.02;;
68212;SDS011;55035;47.792;8.724;2022-11-04T05:28:24;5.82;;;1.15;;
68212;SDS011;55035;47.792;8.724;2022-11-04T05:30:52;4.30;;;1.00;;
68212;SDS011;55035;47.792;8.724;2022-11-04T05:33:19;5.18;;;1.15;;
68212;SDS011;55035;47.792;8.724;2022-11-04T05:35:46;5.50;;;1.30;;
68212;SDS011;55035;47.792;8.724;2022-11-04T05:38:13;5.10;;;0.90;;
68212;SDS011;55035;47.792;8.724;2022-11-04T05:40:40;4.57;;;1.00;;
68212;SDS011;55035;47.792;8.724;2022-11-04T05:43:07;5.05;;;1.20;;
68212;SDS011;55035;47.792;8.724;2022-11-04T05:45:33;4.72;;;1.00;;
68212;SDS011;55035;47.792;8.724;2022-11-04T05:48:02;5.43;;;1.30;;
68212;SDS011;55035;47.792;8.724;2022-11-04T05:50:30;4.95;;;1.20;;
68212;SDS011;55035;47.792;8.724;2022-11-04T05:52:58;4.35;;;1.17;;
68212;SDS011;55035;47.792;8.724;2022-11-04T05:55:25;6.57;;;1.20;;
68212;SDS011;55035;47.792;8.724;2022-11-04T05:57:52;4.50;;;1.08;;
68212;SDS011;55035;47.792;8.724;2022-11-04T06:00:20;5.10;;;1.30;;
68212;SDS011;55035;47.792;8.724;2022-11-04T06:02:48;5.85;;;1.45;;
68212;SDS011;55035;47.792;8.724;2022-11-04T06:05:16;6.22;;;1.73;;
68212;SDS011;55035;47.792;8.724;2022-11-04T06:07:43;6.25;;;1.92;;
68212;SDS011;55035;47.792;8.724;2022-11-04T06:10:10;6.40;;;1.80;;
68212;SDS011;55035;47.792;8.724;2022-11-04T06:12:36;7.13;;;2.17;;
68212;SDS011;55035;47.792;8.724;2022-11-04T06:15:04;5.90;;;1.38;;
68212;SDS011;55035;47.792;8.724;2022-11-04T06:17:31;5.25;;;1.65;;
68212;SDS011;55035;47.792;8.724;2022-11-04T06:19:57;5.82;;;1.50;;
68212;SDS011;55035;47.792;8.724;2022-11-04T06:22:26;5.40;;;1.80;;
68212;SDS011;55035;47.792;8.724;2022-11-04T06:24:52;5.68;;;1.98;;
68212;SDS011;55035;47.792;8.724;2022-11-04T06:27:19;5.90;;;1.40;;
68212;SDS011;55035;47.792;8.724;2022-11-04T06:29:46;5.15;;;1.48;;
68212;SDS011;55035;47.792;8.724;2022-11-04T06:32:13;7.45;;;2.30;;
68212;SDS011;55035;47.792;8.724;2022-11-04T06:34:40;6.95;;;2.40;;
68212;SDS011;55035;47.792;8.724;2022-11-04T06:37:07;6.00;;;1.80;;
68212;SDS011;55035;47.792;8.724;2022-11-04T06:39:36;7.47;;;2.75;;
68212;SDS011;55035;47.792;8.724;2022-11-04T06:42:03;6.93;;;2.20;;
68212;SDS011;55035;47.792;8.724;2022-11-04T06:44:30;6.40;;;2.20;;
68212;SDS011;55035;47.792;8.724;2022-11-04T06:46:58;6.28;;;1.90;;
68212;SDS011;55035;47.792;8.724;2022-11-04T06:49:26;6.85;;;1.70;;
68212;SDS011;55035;47.792;8.724;2022-11-04T06:51:53;5.90;;;2.00;;
68212;SDS011;55035;47.792;8.724;2022-11-04T06:54:20;6.13;;;1.88;;
68212;SDS011;55035;47.792;8.724;2022-11-04T06:56:48;6.13;;;2.03;;
68212;SDS011;55035;47.792;8.724;2022-11-04T06:59:15;5.93;;;2.13;;
68212;SDS011;55035;47.792;8.724;2022-11-04T07:01:44;6.25;;;2.17;;
68212;SDS011;55035;47.792;8.724;2022-11-04T07:04:11;6.15;;;1.90;;
68212;SDS011;55035;47.792;8.724;2022-11-04T07:06:40;6.18;;;2.28;;
68212;SDS011;55035;47.792;8.724;2022-11-04T07:09:08;7.68;;;2.20;;
68212;SDS011;55035;47.792;8.724;2022-11-04T07:11:35;6.20;;;1.98;;
68212;SDS011;55035;47.792;8.724;2022-11-04T07:14:04;6.65;;;2.15;;
68212;SDS011;55035;47.792;8.724;2022-11-04T07:16:33;11.00;;;2.70;;
68212;SDS011;55035;47.792;8.724;2022-11-04T07:19:00;8.65;;;3.30;;
68212;SDS011;55035;47.792;8.724;2022-11-04T07:21:27;9.77;;;3.90;;
68212;SDS011;55035;47.792;8.724;2022-11-04T07:23:54;11.68;;;5.78;;
68212;SDS011;55035;47.792;8.724;2022-11-04T07:26:21;13.85;;;6.32;;
68212;SDS011;55035;47.792;8.724;2022-11-04T07:28:48;10.32;;;4.13;;
68212;SDS011;55035;47.792;8.724;2022-11-04T07:31:16;13.43;;;5.20;;
68212;SDS011;55035;47.792;8.724;2022-11-04T07:33:43;10.05;;;4.50;;
68212;SDS011;55035;47.792;8.724;2022-11-04T07:36:14;8.50;;;3.20;;
68212;SDS011;55035;47.792;8.724;2022-11-04T07:38:42;7.18;;;2.85;;
68212;SDS011;55035;47.792;8.724;2022-11-04T07:41:13;7.30;;;2.75;;
68212;SDS011;55035;47.792;8.724;2022-11-04T07:43:40;7.47;;;2.80;;
68212;SDS011;55035;47.792;8.724;2022-11-04T07:46:09;6.93;;;2.67;;
68212;SDS011;55035;47.792;8.724;2022-11-04T07:48:37;7.55;;;3.05;;
68212;SDS011;55035;47.792;8.724;2022-11-04T07:51:05;8.27;;;3.15;;
68212;SDS011;55035;47.792;8.724;2022-11-04T07:53:32;8.15;;;3.70;;
68212;SDS011;55035;47.792;8.724;2022-11-04T07:56:01;8.55;;;3.30;;
68212;SDS011;55035;47.792;8.724;2022-11-04T07:58:28;7.45;;;2.90;;
68212;SDS011;55035;47.792;8.724;2022-11-04T08:00:58;8.20;;;3.22;;
68212;SDS011;55035;47.792;8.724;2022-11-04T08:03:27;7.13;;;3.25;;
68212;SDS011;55035;47.792;8.724;2022-11-04T08:05:55;7.00;;;2.63;;
68212;SDS011;55035;47.792;8.724;2022-11-04T08:08:23;8.13;;;3.03;;
68212;SDS011;55035;47.792;8.724;2022-11-04T08:10:53;9.23;;;4.40;;
68212;SDS011;55035;47.792;8.724;2022-11-04T08:13:20;7.47;;;3.00;;
68212;SDS011;55035;47.792;8.724;2022-11-04T08:15:47;7.05;;;3.15;;
68212;SDS011;55035;47.792;8.724;2022-11-04T08:18:14;6.43;;;2.88;;
68212;SDS011;55035;47.792;8.724;2022-11-04T08:20:45;7.07;;;2.55;;
68212;SDS011;55035;47.792;8.724;2022-11-04T08:23:14;9.07;;;2.65;;
68212;SDS011;55035;47.792;8.724;2022-11-04T08:25:41;5.95;;;2.20;;
68212;SDS011;55035;47.792;8.724;2022-11-04T08:28:08;7.05;;;2.35;;
68212;SDS011;55035;47.792;8.724;2022-11-04T08:30:37;6.25;;;1.95;;
68212;SDS011;55035;47.792;8.724;2022-11-04T08:33:04;6.68;;;2.22;;
68212;SDS011;55035;47.792;8.724;2022-11-04T08:35:31;6.18;;;2.28;;
68212;SDS011;55035;47.792;8.724;2022-11-04T08:38:00;7.50;;;1.75;;
68212;SDS011;55035;47.792;8.724;2022-11-04T08:40:28;5.78;;;1.80;;
68212;SDS011;55035;47.792;8.724;2022-11-04T08:42:55;6.97;;;2.20;;
68212;SDS011;55035;47.792;8.724;2022-11-04T08:45:22;6.55;;;2.28;;
68212;SDS011;55035;47.792;8.724;2022-11-04T08:47:49;9.38;;;2.65;;
68212;SDS011;55035;47.792;8.724;2022-11-04T08:50:16;7.05;;;2.53;;
68212;SDS011;55035;47.792;8.724;2022-11-04T08:52:42;7.45;;;2.67;;
68212;SDS011;55035;47.792;8.724;2022-11-04T08:55:09;7.40;;;2.72;;
68212;SDS011;55035;47.792;8.724;2022-11-04T08:57:38;7.60;;;2.63;;
68212;SDS011;55035;47.792;8.724;2022-11-04T09:00:05;7.75;;;2.53;;
68212;SDS011;55035;47.792;8.724;2022-11-04T09:02:32;8.63;;;3.15;;
68212;SDS011;55035;47.792;8.724;2022-11-04T09:05:00;8.15;;;2.70;;
68212;SDS011;55035;47.792;8.724;2022-11-04T09:07:27;7.07;;;2.70;;
68212;SDS011;55035;47.792;8.724;2022-11-04T09:09:55;8.27;;;2.90;;
68212;SDS011;55035;47.792;8.724;2022-11-04T09:12:22;6.93;;;2.75;;
68212;SDS011;55035;47.792;8.724;2022-11-04T09:14:50;6.43;;;1.88;;
68212;SDS011;55035;47.792;8.724;2022-11-04T09:17:17;6.32;;;2.20;;
68212;SDS011;55035;47.792;8.724;2022-11-04T09:19:43;6.55;;;1.80;;
68212;SDS011;55035;47.792;8.724;2022-11-04T09:22:10;5.00;;;1.30;;
68212;SDS011;55035;47.792;8.724;2022-11-04T09:24:37;4.63;;;1.30;;
68212;SDS011;55035;47.792;8.724;2022-11-04T09:27:04;5.13;;;1.35;;
68212;SDS011;55035;47.792;8.724;2022-11-04T09:29:31;4.82;;;1.30;;
68212;SDS011;55035;47.792;8.724;2022-11-04T09:32:00;3.90;;;0.95;;
68212;SDS011;55035;47.792;8.724;2022-11-04T09:34:26;5.38;;;1.50;;
68212;SDS011;55035;47.792;8.724;2022-11-04T09:36:53;4.93;;;0.98;;
68212;SDS011;55035;47.792;8.724;2022-11-04T09:39:20;4.60;;;1.00;;
68212;SDS011;55035;47.792;8.724;2022-11-04T09:41:50;6.13;;;1.60;;
68212;SDS011;55035;47.792;8.724;2022-11-04T09:44:24;4.97;;;1.60;;
68212;SDS011;55035;47.792;8.724;2022-11-04T09:46:53;4.47;;;1.00;;
68212;SDS011;55035;47.792;8.724;2022-11-04T09:49:22;6.32;;;1.23;;
68212;SDS011;55035;47.792;8.724;2022-11-04T09:51:54;4.80;;;1.23;;
68212;SDS011;55035;47.792;8.724;2022-11-04T09:54:22;5.85;;;1.10;;
68212;SDS011;55035;47.792;8.724;2022-11-04T09:56:50;5.55;;;1.50;;
68212;SDS011;55035;47.792;8.724;2022-11-04T09:59:23;7.57;;;1.50;;
68212;SDS011;55035;47.792;8.724;2022-11-04T10:05:00;4.93;;;1.25;;
68212;SDS011;55035;47.792;8.724;2022-11-04T10:07:34;5.10;;;1.30;;
68212;SDS011;55035;47.792;8.724;2022-11-04T10:10:06;3.53;;;0.82;;
68212;SDS011;55035;47.792;8.724;2022-11-04T10:12:40;5.78;;;1.40;;
68212;SDS011;55035;47.792;8.724;2022-11-04T10:15:26;5.40;;;1.50;;
68212;SDS011;55035;47.792;8.724;2022-11-04T10:17:59;4.95;;;1.63;;
68212;SDS011;55035;47.792;8.724;2022-11-04T10:20:32;5.05;;;1.30;;
68212;SDS011;55035;47.792;8.724;2022-11-04T10:23:04;5.68;;;1.38;;
68212;SDS011;55035;47.792;8.724;2022-11-04T10:25:35;5.30;;;1.48;;
68212;SDS011;55035;47.792;8.724;2022-11-04T10:28:06;5.80;;;1.50;;
68212;SDS011;55035;47.792;8.724;2022-11-04T10:30:34;4.72;;;1.20;;
68212;SDS011;55035;47.792;8.724;2022-11-04T10:33:07;5.15;;;1.63;;
68212;SDS011;55035;47.792;8.724;2022-11-04T10:35:37;5.85;;;1.63;;
68212;SDS011;55035;47.792;8.724;2022-11-04T10:38:20;4.72;;;1.63;;
68212;SDS011;55035;47.792;8.724;2022-11-04T10:40:48;6.70;;;1.60;;
68212;SDS011;55035;47.792;8.724;2022-11-04T10:43:17;5.43;;;1.38;;
68212;SDS011;55035;47.792;8.724;2022-11-04T10:45:50;5.03;;;1.42;;
68212;SDS011;55035;47.792;8.724;2022-11-04T10:48:22;5.05;;;1.60;;
68212;SDS011;55035;47.792;8.724;2022-11-04T10:50:53;6.20;;;1.30;;
68212;SDS011;55035;47.792;8.724;2022-11-04T10:53:22;4.40;;;1.05;;
68212;SDS011;55035;47.792;8.724;2022-11-04T10:55:55;5.55;;;1.50;;
68212;SDS011;55035;47.792;8.724;2022-11-04T10:58:24;5.65;;;1.00;;
68212;SDS011;55035;47.792;8.724;2022-11-04T11:00:51;6.07;;;1.35;;
68212;SDS011;55035;47.792;8.724;2022-11-04T11:03:23;9.07;;;1.60;;
68212;SDS011;55035;47.792;8.724;2022-11-04T11:05:52;5.40;;;1.45;;
68212;SDS011;55035;47.792;8.724;2022-11-04T11:08:28;4.82;;;1.00;;
68212;SDS011;55035;47.792;8.724;2022-11-04T11:10:55;5.63;;;1.23;;
68212;SDS011;55035;47.792;8.724;2022-11-04T11:13:23;4.53;;;1.45;;
68212;SDS011;55035;47.792;8.724;2022-11-04T11:15:51;4.60;;;1.27;;
68212;SDS011;55035;47.792;8.724;2022-11-04T11:18:29;4.80;;;1.13;;
68212;SDS011;55035;47.792;8.724;2022-11-04T11:21:04;7.47;;;1.02;;
68212;SDS011;55035;47.792;8.724;2022-11-04T11:23:36;5.45;;;1.10;;
68212;SDS011;55035;47.792;8.724;2022-11-04T11:26:05;4.78;;;1.38;;
68212;SDS011;55035;47.792;8.724;2022-11-04T11:28:32;5.50;;;1.27;;
68212;SDS011;55035;47.792;8.724;2022-11-04T11:31:03;4.35;;;1.30;;
68212;SDS011;55035;47.792;8.724;2022-11-04T11:33:33;4.72;;;1.20;;
68212;SDS011;55035;47.792;8.724;2022-11-04T11:36:01;5.35;;;1.27;;
68212;SDS011;55035;47.792;8.724;2022-11-04T11:38:32;4.97;;;1.15;;
68212;SDS011;55035;47.792;8.724;2022-11-04T11:41:04;6.33;;;1.03;;
68212;SDS011;55035;47.792;8.724;2022-11-04T11:43:32;4.20;;;1.20;;
68212;SDS011;55035;47.792;8.724;2022-11-04T11:46:00;7.47;;;2.00;;
68212;SDS011;55035;47.792;8.724;2022-11-04T11:48:29;4.30;;;1.20;;
68212;SDS011;55035;47.792;8.724;2022-11-04T11:50:57;5.47;;;1.17;;
68212;SDS011;55035;47.792;8.724;2022-11-04T11:53:25;4.67;;;1.40;;
68212;SDS011;55035;47.792;8.724;2022-11-04T11:55:57;6.03;;;1.45;;
68212;SDS011;55035;47.792;8.724;2022-11-04T11:58:27;4.72;;;1.10;;
68212;SDS011;55035;47.792;8.724;2022-11-04T12:00:57;4.38;;;1.30;;
68212;SDS011;55035;47.792;8.724;2022-11-04T12:03:27;5.50;;;1.13;;
68212;SDS011;55035;47.792;8.724;2022-11-04T12:06:04;4.53;;;1.00;;
68212;SDS011;55035;47.792;8.724;2022-11-04T12:08:56;5.22;;;1.10;;
68212;SDS011;55035;47.792;8.724;2022-11-04T12:11:29;4.40;;;0.90;;
68212;SDS011;55035;47.792;8.724;2022-11-04T12:14:00;4.85;;;1.27;;
68212;SDS011;55035;47.792;8.724;2022-11-04T12:16:31;4.70;;;1.08;;
68212;SDS011;55035;47.792;8.724;2022-11-04T12:19:06;4.37;;;1.10;;
68212;SDS011;55035;47.792;8.724;2022-11-04T12:21:36;4.82;;;0.93;;
68212;SDS011;55035;47.792;8.724;2022-11-04T12:24:07;5.05;;;0.80;;
68212;SDS011;55035;47.792;8.724;2022-11-04T12:26:42;5.03;;;0.90;;
68212;SDS011;55035;47.792;8.724;2022-11-04T12:29:18;4.47;;;0.82;;
68212;SDS011;55035;47.792;8.724;2022-11-04T12:31:54;4.33;;;1.27;;
68212;SDS011;55035;47.792;8.724;2022-11-04T12:34:29;5.07;;;1.20;;
68212;SDS011;55035;47.792;8.724;2022-11-04T12:37:04;5.90;;;1.10;;
68212;SDS011;55035;47.792;8.724;2022-11-04T12:39:39;5.85;;;1.20;;
68212;SDS011;55035;47.792;8.724;2022-11-04T12:42:13;4.57;;;1.50;;
68212;SDS011;55035;47.792;8.724;2022-11-04T12:44:51;6.00;;;1.50;;
68212;SDS011;55035;47.792;8.724;2022-11-04T12:47:27;5.10;;;1.00;;
68212;SDS011;55035;47.792;8.724;2022-11-04T12:55:31;6.43;;;1.10;;
68212;SDS011;55035;47.792;8.724;2022-11-04T12:58:03;6.32;;;1.20;;
68212;SDS011;55035;47.792;8.724;2022-11-04T13:00:33;8.05;;;1.30;;
68212;SDS011;55035;47.792;8.724;2022-11-04T13:03:03;7.15;;;1.20;;
68212;SDS011;55035;47.792;8.724;2022-11-04T13:05:39;5.70;;;1.33;;
68212;SDS011;55035;47.792;8.724;2022-11-04T13:08:10;6.72;;;1.30;;
68212;SDS011;55035;47.792;8.724;2022-11-04T13:10:41;7.00;;;1.50;;
68212;SDS011;55035;47.792;8.724;2022-11-04T13:13:11;5.72;;;1.08;;
68212;SDS011;55035;47.792;8.724;2022-11-04T13:15:42;5.97;;;1.35;;
68212;SDS011;55035;47.792;8.724;2022-11-04T13:18:12;5.95;;;1.50;;
68212;SDS011;55035;47.792;8.724;2022-11-04T13:20:42;6.75;;;1.88;;
68212;SDS011;55035;47.792;8.724;2022-11-04T13:23:12;5.75;;;1.65;;
68212;SDS011;55035;47.792;8.724;2022-11-04T13:25:42;7.10;;;1.65;;
68212;SDS011;55035;47.792;8.724;2022-11-04T13:28:11;7.30;;;1.77;;
68212;SDS011;55035;47.792;8.724;2022-11-04T13:30:39;11.30;;;3.03;;
68212;SDS011;55035;47.792;8.724;2022-11-04T13:33:12;8.55;;;2.90;;
68212;SDS011;55035;47.792;8.724;2022-11-04T13:35:43;8.53;;;2.83;;
68212;SDS011;55035;47.792;8.724;2022-11-04T13:38:13;7.22;;;1.60;;
68212;SDS011;55035;47.792;8.724;2022-11-04T13:40:43;4.88;;;1.00;;
68212;SDS011;55035;47.792;8.724;2022-11-04T13:43:21;5.78;;;0.90;;
68212;SDS011;55035;47.792;8.724;2022-11-04T13:46:05;5.78;;;1.30;;
68212;SDS011;55035;47.792;8.724;2022-11-04T13:48:51;5.93;;;1.07;;
68212;SDS011;55035;47.792;8.724;2022-11-04T13:51:18;6.43;;;1.80;;
68212;SDS011;55035;47.792;8.724;2022-11-04T13:53:45;6.68;;;1.80;;
68212;SDS011;55035;47.792;8.724;2022-11-04T13:59:05;6.32;;;1.50;;
68212;SDS011;55035;47.792;8.724;2022-11-04T14:01:33;5.40;;;1.30;;
68212;SDS011;55035;47.792;8.724;2022-11-04T14:04:02;6.65;;;1.55;;
68212;SDS011;55035;47.792;8.724;2022-11-04T14:06:50;5.78;;;1.30;;
68212;SDS011;55035;47.792;8.724;2022-11-04T14:12:17;5.57;;;1.30;;
68212;SDS011;55035;47.792;8.724;2022-11-04T14:14:46;5.33;;;1.10;;
68212;SDS011;55035;47.792;8.724;2022-11-04T14:19:58;4.13;;;0.70;;
68212;SDS011;55035;47.792;8.724;2022-11-04T14:22:28;10.80;;;3.88;;
68212;SDS011;55035;47.792;8.724;2022-11-04T14:24:56;4.97;;;1.27;;
68212;SDS011;55035;47.792;8.724;2022-11-04T14:27:24;6.00;;;1.13;;
68212;SDS011;55035;47.792;8.724;2022-11-04T14:29:53;5.82;;;1.60;;
68212;SDS011;55035;47.792;8.724;2022-11-04T14:32:22;5.28;;;0.90;;
68212;SDS011;55035;47.792;8.724;2022-11-04T14:34:56;5.97;;;0.90;;
68212;SDS011;55035;47.792;8.724;2022-11-04T14:37:25;4.82;;;1.10;;
68212;SDS011;55035;47.792;8.724;2022-11-04T14:39:54;5.95;;;1.38;;
68212;SDS011;55035;47.792;8.724;2022-11-04T14:45:07;5.63;;;1.23;;
68212;SDS011;55035;47.792;8.724;2022-11-04T14:47:34;5.55;;;1.20;;
68212;SDS011;55035;47.792;8.724;2022-11-04T14:50:03;6.20;;;1.23;;
68212;SDS011;55035;47.792;8.724;2022-11-04T14:52:32;3.97;;;0.75;;
68212;SDS011;55035;47.792;8.724;2022-11-04T14:55:01;4.90;;;1.00;;
68212;SDS011;55035;47.792;8.724;2022-11-04T14:57:28;4.82;;;0.90;;
68212;SDS011;55035;47.792;8.724;2022-11-04T14:59:56;6.50;;;1.25;;
68212;SDS011;55035;47.792;8.724;2022-11-04T15:02:26;14.15;;;6.05;;
68212;SDS011;55035;47.792;8.724;2022-11-04T15:04:55;9.25;;;2.15;;
68212;SDS011;55035;47.792;8.724;2022-11-04T15:07:24;7.97;;;1.80;;
68212;SDS011;55035;47.792;8.724;2022-11-04T15:09:52;8.45;;;1.50;;
68212;SDS011;55035;47.792;8.724;2022-11-04T15:12:19;5.88;;;1.40;;
68212;SDS011;55035;47.792;8.724;2022-11-04T15:15:22;6.32;;;1.10;;
68212;SDS011;55035;47.792;8.724;2022-11-04T15:17:53;5.65;;;1.00;;
68212;SDS011;55035;47.792;8.724;2022-11-04T15:20:22;3.88;;;1.00;;
68212;SDS011;55035;47.792;8.724;2022-11-04T15:22:50;5.80;;;1.08;;
68212;SDS011;55035;47.792;8.724;2022-11-04T15:25:17;4.38;;;0.88;;
68212;SDS011;55035;47.792;8.724;2022-11-04T15:27:44;5.53;;;1.10;;